createdAt,value
2023-02-03T00:00:31.937Z,101375.97
2023-02-03T00:01:34.333Z,101375.06
2023-02-03T00:02:36.614Z,101367.97
2023-02-03T00:03:38.998Z,101369.75
2023-02-03T00:04:41.230Z,101368.91
2023-02-03T00:05:44.059Z,101367.13
2023-02-03T00:06:46.705Z,101370.63
2023-02-03T00:07:49.389Z,101368.88
2023-02-03T00:08:58.280Z,101368.00
2023-02-03T00:10:00.598Z,101370.63
2023-02-03T00:11:03.007Z,101366.19
2023-02-03T00:12:05.934Z,101368.84
2023-02-03T00:13:09.195Z,101364.44
2023-02-03T00:14:11.477Z,101358.28
2023-02-03T00:15:13.740Z,101366.22
2023-02-03T00:16:15.966Z,101357.41
2023-02-03T00:17:18.199Z,101354.75
2023-02-03T00:18:20.424Z,101356.53
2023-02-03T00:19:22.644Z,101354.78
2023-02-03T00:20:26.206Z,101350.34
2023-02-03T00:21:28.777Z,101341.53
2023-02-03T00:22:31.077Z,101341.56
2023-02-03T00:23:34.103Z,101352.13
2023-02-03T00:24:36.308Z,101344.16
2023-02-03T00:25:40.679Z,101332.72
2023-02-03T00:26:43.507Z,101330.94
2023-02-03T00:27:45.870Z,101333.63
2023-02-03T00:28:48.790Z,101331.88
2023-02-03T00:29:51.110Z,101325.69
2023-02-03T00:30:54.184Z,101326.56
2023-02-03T00:31:56.774Z,101331.84
2023-02-03T00:32:59.044Z,101330.09
2023-02-03T00:34:01.378Z,101323.06
2023-02-03T00:35:04.089Z,101317.75
2023-02-03T00:36:07.147Z,101323.94
2023-02-03T00:37:09.447Z,101316.88
2023-02-03T00:38:12.618Z,101319.50
2023-02-03T00:39:16.104Z,101310.69
2023-02-03T00:40:18.606Z,101308.94
2023-02-03T00:41:21.571Z,101312.50
2023-02-03T00:42:23.882Z,101311.59
2023-02-03T00:43:26.445Z,101312.47
2023-02-03T00:44:28.696Z,101306.28
2023-02-03T00:45:30.977Z,101306.31
2023-02-03T00:46:36.137Z,101308.06
2023-02-03T00:47:38.442Z,101302.78
2023-02-03T00:48:40.675Z,101293.94
2023-02-03T00:49:42.909Z,101289.53
2023-02-03T00:50:47.460Z,101292.19
2023-02-03T00:51:50.411Z,101285.13
2023-02-03T00:52:52.766Z,101286.00
2023-02-03T00:53:54.990Z,101280.69
2023-02-03T00:54:58.266Z,101279.81
2023-02-03T00:56:00.499Z,101281.63
2023-02-03T00:57:02.770Z,101278.97
2023-02-03T00:58:05.548Z,101279.84
2023-02-03T00:59:08.153Z,101281.59
2023-02-03T01:00:11.376Z,101267.47
2023-02-03T01:01:16.046Z,101271.00
2023-02-03T01:02:18.542Z,101269.25
2023-02-03T01:03:20.806Z,101260.41
2023-02-03T01:04:23.095Z,101261.31
2023-02-03T01:05:25.327Z,101258.66
2023-02-03T01:06:28.220Z,101264.81
2023-02-03T01:07:33.281Z,101256.88
2023-02-03T01:08:35.523Z,101258.66
2023-02-03T01:09:38.293Z,101256.88
2023-02-03T01:10:40.590Z,101248.06
2023-02-03T01:11:42.851Z,101238.38
2023-02-03T01:12:45.101Z,101233.03
2023-02-03T01:13:47.609Z,101229.50
2023-02-03T01:14:49.842Z,101230.38
2023-02-03T01:15:52.404Z,101230.38
2023-02-03T01:16:54.796Z,101226.88
2023-02-03T01:17:57.076Z,101220.69
2023-02-03T01:18:59.350Z,101219.81
2023-02-03T01:20:05.081Z,101221.56
2023-02-03T01:21:10.075Z,101221.56
2023-02-03T01:22:12.486Z,101215.38
2023-02-03T01:23:14.744Z,101206.56
2023-02-03T01:24:17.427Z,101201.25
2023-02-03T01:25:20.262Z,101195.97
2023-02-03T01:26:24.476Z,101193.31
2023-02-03T01:27:26.690Z,101204.78
2023-02-03T01:28:31.541Z,101205.69
2023-02-03T01:29:33.797Z,101208.34
2023-02-03T01:30:36.253Z,101204.81
2023-02-03T01:31:42.307Z,101209.22
2023-02-03T01:32:44.697Z,101210.97
2023-02-03T01:33:48.673Z,101209.19
2023-02-03T01:34:51.036Z,101210.09
2023-02-03T01:35:53.288Z,101210.09
2023-02-03T01:36:55.649Z,101203.91
2023-02-03T01:37:59.527Z,101208.34
2023-02-03T01:39:02.060Z,101206.56
2023-02-03T01:40:05.050Z,101201.25
2023-02-03T01:41:12.984Z,101190.69
2023-02-03T01:42:17.789Z,101200.38
2023-02-03T01:43:44.150Z,101187.13
2023-02-03T01:44:49.408Z,101189.78
2023-02-03T01:45:51.986Z,101188.00
2023-02-03T01:46:54.324Z,101184.47
2023-02-03T01:48:00.169Z,101179.19
2023-02-03T01:49:39.171Z,101176.56
2023-02-03T01:50:41.510Z,101181.84
2023-02-03T01:51:45.396Z,101173.88
2023-02-03T01:52:53.461Z,101180.06
2023-02-03T01:53:57.355Z,101182.75
2023-02-03T01:55:02.896Z,101180.09
2023-02-03T01:56:06.374Z,101179.22
2023-02-03T01:57:27.100Z,101180.97
2023-02-03T01:58:33.979Z,101180.97
2023-02-03T01:59:36.861Z,101175.66
2023-02-03T02:00:39.354Z,101175.69
2023-02-03T02:01:41.895Z,101171.25
2023-02-03T02:02:46.337Z,101165.03
2023-02-03T02:03:52.688Z,101160.69
2023-02-03T02:05:06.952Z,101159.75
2023-02-03T02:06:11.571Z,101150.06
2023-02-03T02:07:16.539Z,101148.28
2023-02-03T02:08:19.875Z,101152.69
2023-02-03T02:09:22.265Z,101143.88
2023-02-03T02:10:24.996Z,101145.63
2023-02-03T02:11:29.543Z,101149.16
2023-02-03T02:12:31.770Z,101138.53
2023-02-03T02:13:35.523Z,101131.50
2023-02-03T02:14:38.823Z,101135.03
2023-02-03T02:15:55.506Z,101134.13
2023-02-03T02:17:20.275Z,101129.69
2023-02-03T02:18:54.638Z,101130.59
2023-02-03T02:20:32.670Z,101127.94
2023-02-03T02:21:44.033Z,101122.69
2023-02-03T02:23:17.626Z,101120.91
2023-02-03T02:24:38.624Z,101110.34
2023-02-03T02:25:49.339Z,101108.53
2023-02-03T02:27:23.778Z,101100.53
2023-02-03T02:28:34.814Z,101104.03
2023-02-03T02:29:51.864Z,101098.75
2023-02-03T02:31:19.636Z,101094.34
2023-02-03T02:32:43.854Z,101096.09
2023-02-03T02:34:27.014Z,101082.88
2023-02-03T02:35:59.055Z,101088.13
2023-02-03T02:37:04.461Z,101081.06
2023-02-03T02:38:27.697Z,101086.41
2023-02-03T02:39:43.580Z,101080.25
2023-02-03T02:41:00.115Z,101073.16
2023-02-03T02:42:18.382Z,101072.25
2023-02-03T02:43:28.476Z,101069.69
2023-02-03T02:44:51.317Z,101067.91
2023-02-03T02:46:14.687Z,101058.22
2023-02-03T02:47:22.634Z,101059.00
2023-02-03T02:48:40.415Z,101059.03
2023-02-03T02:50:05.727Z,101051.06
2023-02-03T02:51:12.362Z,101046.72
2023-02-03T02:52:17.701Z,101040.50
2023-02-03T02:53:24.163Z,101030.81
2023-02-03T02:54:28.892Z,101032.59
2023-02-03T02:55:34.925Z,101024.59
2023-02-03T02:56:40.873Z,101019.34
2023-02-03T02:57:45.265Z,101022.88
2023-02-03T02:58:50.903Z,101021.16
2023-02-03T02:59:54.677Z,101022.03
2023-02-03T03:00:57.264Z,101008.78
2023-02-03T03:01:59.522Z,101016.75
2023-02-03T03:03:28.048Z,101005.28
2023-02-03T03:04:33.498Z,101009.69
2023-02-03T03:05:36.228Z,100997.31
2023-02-03T03:06:44.116Z,100999.09
2023-02-03T03:08:02.768Z,100994.69
2023-02-03T03:09:16.992Z,100995.59
2023-02-03T03:10:24.591Z,100989.41
2023-02-03T03:11:30.187Z,100978.81
2023-02-03T03:12:40.194Z,100980.59
2023-02-03T03:13:47.860Z,100983.25
2023-02-03T03:14:55.542Z,100978.00
2023-02-03T03:16:02.228Z,100975.31
2023-02-03T03:17:09.244Z,100967.38
2023-02-03T03:18:18.182Z,100976.19
2023-02-03T03:19:27.110Z,100972.69
2023-02-03T03:20:32.837Z,100972.69
2023-02-03T03:21:49.310Z,100975.34
2023-02-03T03:23:05.595Z,100972.72
2023-02-03T03:24:11.515Z,100979.81
2023-02-03T03:25:19.634Z,100970.97
2023-02-03T03:26:32.830Z,100969.19
2023-02-03T03:27:41.311Z,100958.56
2023-02-03T03:28:54.583Z,100968.25
2023-02-03T03:30:01.972Z,100962.97
2023-02-03T03:31:04.697Z,100962.97
2023-02-03T03:32:07.356Z,100959.44
2023-02-03T03:33:10.297Z,100960.34
2023-02-03T03:34:13.952Z,100949.78
2023-02-03T03:35:16.998Z,100944.50
2023-02-03T03:36:42.865Z,100941.81
2023-02-03T03:37:57.932Z,100940.94
2023-02-03T03:39:22.119Z,100935.63
2023-02-03T03:40:31.933Z,100936.53
2023-02-03T03:41:42.894Z,100933.03
2023-02-03T03:42:51.416Z,100930.38
2023-02-03T03:43:59.281Z,100905.72
2023-02-03T03:45:26.642Z,100916.31
2023-02-03T03:46:53.655Z,100906.59
2023-02-03T03:48:06.307Z,100901.28
2023-02-03T03:49:10.980Z,100896.84
2023-02-03T03:50:22.524Z,100895.88
2023-02-03T03:51:34.985Z,100898.56
2023-02-03T03:52:39.608Z,100891.53
2023-02-03T03:53:44.551Z,100875.69
2023-02-03T03:54:49.030Z,100874.81
2023-02-03T03:55:54.130Z,100870.44
2023-02-03T03:57:21.996Z,100877.47
2023-02-03T03:58:31.113Z,100862.47
2023-02-03T03:59:38.147Z,100867.78
2023-02-03T04:00:43.122Z,100867.78
2023-02-03T04:01:47.131Z,100860.72
2023-02-03T04:02:54.038Z,100852.75
2023-02-03T04:04:02.132Z,100842.19
2023-02-03T04:05:05.910Z,100836.00
2023-02-03T04:06:08.183Z,100825.41
2023-02-03T04:07:12.281Z,100832.47
2023-02-03T04:08:14.535Z,100831.56
2023-02-03T04:09:17.551Z,100825.41
2023-02-03T04:10:32.046Z,100823.63
2023-02-03T04:11:53.164Z,100825.41
2023-02-03T04:12:55.773Z,100812.22
2023-02-03T04:13:59.118Z,100812.16
2023-02-03T04:15:01.286Z,100809.56
2023-02-03T04:16:03.937Z,100803.47
2023-02-03T04:17:06.540Z,100806.00
2023-02-03T04:18:13.236Z,100807.72
2023-02-03T04:19:15.651Z,100797.97
2023-02-03T04:20:18.131Z,100787.31
2023-02-03T04:21:22.239Z,100786.47
2023-02-03T04:22:24.413Z,100794.34
2023-02-03T04:23:26.676Z,100794.28
2023-02-03T04:24:29.041Z,100799.59
2023-02-03T04:25:31.228Z,100806.63
2023-02-03T04:26:33.843Z,100791.66
2023-02-03T04:27:36.187Z,100800.47
2023-02-03T04:28:38.388Z,100790.72
2023-02-03T04:29:40.760Z,100788.09
2023-02-03T04:30:42.982Z,100780.19
2023-02-03T04:31:45.441Z,100782.03
2023-02-03T04:32:48.057Z,100778.41
2023-02-03T04:33:50.263Z,100787.22
2023-02-03T04:34:52.637Z,100788.06
2023-02-03T04:35:54.799Z,100788.88
2023-02-03T04:36:57.144Z,100784.47
2023-02-03T04:37:59.556Z,100785.44
2023-02-03T04:39:01.903Z,100776.63
2023-02-03T04:40:04.989Z,100781.84
2023-02-03T04:41:07.157Z,100779.22
2023-02-03T04:42:09.363Z,100775.56
2023-02-03T04:43:12.432Z,100772.81
2023-02-03T04:44:14.687Z,100775.50
2023-02-03T04:45:16.897Z,100776.38
2023-02-03T04:46:19.768Z,100774.66
2023-02-03T04:47:22.061Z,100772.94
2023-02-03T04:48:24.441Z,100765.00
2023-02-03T04:49:26.630Z,100763.13
2023-02-03T04:50:29.100Z,100771.94
2023-02-03T04:51:31.644Z,100764.13
2023-02-03T04:52:33.962Z,100760.53
2023-02-03T04:53:37.060Z,100760.56
2023-02-03T04:54:39.296Z,100760.50
2023-02-03T04:55:41.435Z,100756.97
2023-02-03T04:56:43.819Z,100752.53
2023-02-03T04:57:46.002Z,100746.25
2023-02-03T04:58:48.398Z,100739.09
2023-02-03T04:59:50.595Z,100739.16
2023-02-03T05:00:53.680Z,100737.38
2023-02-03T05:01:56.165Z,100732.06
2023-02-03T05:02:58.355Z,100729.41
2023-02-03T05:04:00.849Z,100738.31
2023-02-03T05:05:03.220Z,100732.84
2023-02-03T05:06:05.844Z,100732.78
2023-02-03T05:07:08.085Z,100719.66
2023-02-03T05:08:10.576Z,100725.75
2023-02-03T05:09:12.791Z,100714.22
2023-02-03T05:10:15.247Z,100714.28
2023-02-03T05:11:17.514Z,100710.63
2023-02-03T05:12:19.899Z,100703.34
2023-02-03T05:13:22.662Z,100706.84
2023-02-03T05:14:24.872Z,100698.84
2023-02-03T05:15:27.390Z,100696.91
2023-02-03T05:16:29.861Z,100699.56
2023-02-03T05:17:32.343Z,100692.47
2023-02-03T05:18:34.911Z,100689.81
2023-02-03T05:19:37.152Z,100681.88
2023-02-03T05:20:39.385Z,100680.03
2023-02-03T05:21:41.747Z,100686.16
2023-02-03T05:22:43.933Z,100688.91
2023-02-03T05:23:46.541Z,100683.56
2023-02-03T05:24:48.797Z,100680.81
2023-02-03T05:25:50.979Z,100678.09
2023-02-03T05:26:53.411Z,100671.88
2023-02-03T05:27:55.736Z,100669.25
2023-02-03T05:28:58.156Z,100660.34
2023-02-03T05:30:00.409Z,100663.09
2023-02-03T05:31:03.088Z,100664.91
2023-02-03T05:32:05.720Z,100656.94
2023-02-03T05:33:08.050Z,100658.69
2023-02-03T05:34:10.611Z,100663.00
2023-02-03T05:35:12.876Z,100664.63
2023-02-03T05:36:15.068Z,100668.03
2023-02-03T05:37:17.487Z,100664.69
2023-02-03T05:38:20.037Z,100662.09
2023-02-03T05:39:22.382Z,100656.75
2023-02-03T05:40:43.291Z,100666.53
2023-02-03T05:41:56.468Z,100664.59
2023-02-03T05:42:59.698Z,100667.25
2023-02-03T05:44:02.032Z,100666.31
2023-02-03T05:45:04.488Z,100667.13
2023-02-03T05:46:07.702Z,100668.00
2023-02-03T05:47:10.085Z,100663.53
2023-02-03T05:48:12.475Z,100668.75
2023-02-03T05:49:14.902Z,100663.31
2023-02-03T05:50:17.289Z,100665.81
2023-02-03T05:51:20.927Z,100668.50
2023-02-03T05:52:23.110Z,100664.94
2023-02-03T05:53:26.147Z,100679.81
2023-02-03T05:54:28.544Z,100663.88
2023-02-03T05:55:32.004Z,100663.84
2023-02-03T05:56:34.227Z,100662.09
2023-02-03T05:57:36.469Z,100659.28
2023-02-03T05:58:38.731Z,100655.78
2023-02-03T05:59:41.161Z,100659.38
2023-02-03T06:00:43.341Z,100659.47
2023-02-03T06:01:45.739Z,100652.50
2023-02-03T06:02:55.387Z,100658.53
2023-02-03T06:03:57.915Z,100664.63
2023-02-03T06:05:00.557Z,100659.91
2023-02-03T06:06:03.005Z,100658.19
2023-02-03T06:07:05.171Z,100658.16
2023-02-03T06:08:08.593Z,100657.22
2023-02-03T06:09:10.762Z,100649.16
2023-02-03T06:10:14.192Z,100648.13
2023-02-03T06:11:16.439Z,100647.16
2023-02-03T06:12:18.733Z,100639.91
2023-02-03T06:13:20.988Z,100647.88
2023-02-03T06:14:23.208Z,100636.41
2023-02-03T06:15:25.827Z,100635.56
2023-02-03T06:16:29.189Z,100639.97
2023-02-03T06:17:31.811Z,100635.44
2023-02-03T06:18:34.014Z,100624.91
2023-02-03T06:19:36.192Z,100619.59
2023-02-03T06:20:38.593Z,100627.59
2023-02-03T06:21:40.822Z,100618.63
2023-02-03T06:22:43.170Z,100619.66
2023-02-03T06:23:45.575Z,100623.97
2023-02-03T06:24:48.569Z,100623.03
2023-02-03T06:25:52.243Z,100613.34
2023-02-03T06:26:54.717Z,100614.13
2023-02-03T06:27:56.926Z,100609.75
2023-02-03T06:28:59.343Z,100609.84
2023-02-03T06:30:01.557Z,100611.56
2023-02-03T06:31:04.828Z,100608.88
2023-02-03T06:32:07.116Z,100611.41
2023-02-03T06:33:09.404Z,100600.66
2023-02-03T06:34:11.655Z,100604.13
2023-02-03T06:35:14.025Z,100590.88
2023-02-03T06:36:16.415Z,100599.63
2023-02-03T06:37:18.646Z,100591.66
2023-02-03T06:38:20.963Z,100579.34
2023-02-03T06:39:23.546Z,100588.28
2023-02-03T06:40:26.292Z,100593.50
2023-02-03T06:41:30.671Z,100595.31
2023-02-03T06:42:33.065Z,100583.88
2023-02-03T06:43:36.320Z,100582.06
2023-02-03T06:44:38.516Z,100581.91
2023-02-03T06:45:41.064Z,100577.56
2023-02-03T06:46:43.447Z,100577.50
2023-02-03T06:47:46.026Z,100571.19
2023-02-03T06:48:48.410Z,100573.88
2023-02-03T06:49:52.239Z,100574.69
2023-02-03T06:50:55.665Z,100563.09
2023-02-03T06:51:58.076Z,100556.78
2023-02-03T06:53:00.272Z,100554.00
2023-02-03T06:54:07.067Z,100553.94
2023-02-03T06:55:09.565Z,100543.22
2023-02-03T06:56:12.400Z,100540.66
2023-02-03T06:57:14.768Z,100542.53
2023-02-03T06:58:17.069Z,100537.38
2023-02-03T06:59:19.499Z,100538.47
2023-02-03T07:00:21.996Z,100541.84
2023-02-03T07:01:26.198Z,100539.03
2023-02-03T07:02:28.654Z,100544.34
2023-02-03T07:03:30.874Z,100530.91
2023-02-03T07:04:33.289Z,100538.81
2023-02-03T07:05:36.874Z,100543.31
2023-02-03T07:06:39.333Z,100544.06
2023-02-03T07:07:41.616Z,100543.28
2023-02-03T07:08:46.881Z,100540.50
2023-02-03T07:09:49.327Z,100540.44
2023-02-03T07:10:55.265Z,100548.31
2023-02-03T07:11:57.815Z,100544.75
2023-02-03T07:13:06.675Z,100547.53
2023-02-03T07:14:08.917Z,100547.41
2023-02-03T07:15:12.638Z,100547.41
2023-02-03T07:16:15.960Z,100546.50
2023-02-03T07:17:18.473Z,100549.03
2023-02-03T07:18:45.483Z,100547.22
2023-02-03T07:19:47.050Z,100533.06
2023-02-03T07:20:49.469Z,100532.19
2023-02-03T07:21:51.857Z,100536.41
2023-02-03T07:22:56.321Z,100532.94
2023-02-03T07:24:02.961Z,100535.47
2023-02-03T07:25:05.625Z,100533.03
2023-02-03T07:26:08.791Z,100529.38
2023-02-03T07:27:10.995Z,100524.06
2023-02-03T07:28:13.282Z,100529.28
2023-02-03T07:29:15.919Z,100530.72
2023-02-03T07:30:18.395Z,100538.00
2023-02-03T07:31:21.275Z,100522.94
2023-02-03T07:32:24.060Z,100526.59
2023-02-03T07:33:27.129Z,100528.53
2023-02-03T07:34:29.811Z,100528.47
2023-02-03T07:35:32.065Z,100524.06
2023-02-03T07:36:35.429Z,100522.28
2023-02-03T07:37:37.996Z,100519.50
2023-02-03T07:38:40.220Z,100518.56
2023-02-03T07:39:43.210Z,100520.31
2023-02-03T07:40:45.429Z,100507.78
2023-02-03T07:41:47.799Z,100519.31
2023-02-03T07:42:50.425Z,100511.31
2023-02-03T07:43:52.629Z,100500.75
2023-02-03T07:44:55.057Z,100508.66
2023-02-03T07:45:57.587Z,100499.28
2023-02-03T07:46:59.836Z,100500.03
2023-02-03T07:48:02.113Z,100485.06
2023-02-03T07:49:05.818Z,100491.34
2023-02-03T07:50:09.173Z,100490.34
2023-02-03T07:51:11.589Z,100479.69
2023-02-03T07:52:13.775Z,100487.50
2023-02-03T07:53:17.280Z,100481.19
2023-02-03T07:54:19.553Z,100481.94
2023-02-03T07:55:22.771Z,100471.16
2023-02-03T07:56:25.149Z,100470.31
2023-02-03T07:57:27.771Z,100472.91
2023-02-03T07:58:30.592Z,100454.41
2023-02-03T07:59:32.953Z,100463.34
2023-02-03T08:00:35.270Z,100460.72
2023-02-03T08:01:37.845Z,100452.69
2023-02-03T08:02:41.220Z,100452.63
2023-02-03T08:03:44.188Z,100445.47
2023-02-03T08:04:46.476Z,100441.78
2023-02-03T08:05:48.738Z,100437.09
2023-02-03T08:06:51.505Z,100446.84
2023-02-03T08:07:53.931Z,100444.91
2023-02-03T08:08:56.351Z,100441.19
2023-02-03T08:09:58.681Z,100442.88
2023-02-03T08:11:00.862Z,100428.13
2023-02-03T08:12:03.598Z,100435.19
2023-02-03T08:13:06.221Z,100433.38
2023-02-03T08:14:08.531Z,100429.53
2023-02-03T08:15:11.499Z,100423.50
2023-02-03T08:16:14.185Z,100416.75
2023-02-03T08:17:16.424Z,100420.09
2023-02-03T08:18:19.794Z,100411.50
2023-02-03T08:19:21.986Z,100422.56
2023-02-03T08:20:24.499Z,100422.63
2023-02-03T08:21:26.964Z,100414.66
2023-02-03T08:22:29.191Z,100418.97
2023-02-03T08:23:31.445Z,100413.00
2023-02-03T08:24:33.687Z,100409.25
2023-02-03T08:25:35.940Z,100392.28
2023-02-03T08:26:38.373Z,100403.78
2023-02-03T08:27:41.186Z,100403.59
2023-02-03T08:28:43.630Z,100386.66
2023-02-03T08:29:46.594Z,100394.41
2023-02-03T08:30:48.826Z,100385.53
2023-02-03T08:31:51.326Z,100381.09
2023-02-03T08:32:53.572Z,100388.88
2023-02-03T08:33:55.975Z,100378.31
2023-02-03T08:34:58.189Z,100387.19
2023-02-03T08:36:01.143Z,100379.25
2023-02-03T08:37:03.907Z,100378.63
2023-02-03T08:38:06.814Z,100371.50
2023-02-03T08:39:09.031Z,100374.97
2023-02-03T08:40:12.178Z,100365.47
2023-02-03T08:41:17.989Z,100356.59
2023-02-03T08:42:20.891Z,100360.03
2023-02-03T08:43:23.295Z,100367.41
2023-02-03T08:44:25.759Z,100369.09
2023-02-03T08:45:28.196Z,100367.28
2023-02-03T08:46:30.451Z,100358.22
2023-02-03T08:47:34.216Z,100366.13
2023-02-03T08:48:36.863Z,100370.25
2023-02-03T08:49:41.927Z,100361.34
2023-02-03T08:50:45.231Z,100353.28
2023-02-03T08:51:48.137Z,100364.66
2023-02-03T08:52:50.424Z,100363.81
2023-02-03T08:53:53.031Z,100353.56
2023-02-03T08:54:55.228Z,100355.38
2023-02-03T08:55:57.763Z,100349.81
2023-02-03T08:57:00.063Z,100363.94
2023-02-03T08:58:02.362Z,100363.72
2023-02-03T08:59:04.624Z,100349.31
2023-02-03T09:00:07.529Z,100354.59
2023-02-03T09:01:11.972Z,100336.97
2023-02-03T09:02:17.383Z,100336.09
2023-02-03T09:03:20.066Z,100334.41
2023-02-03T09:04:24.996Z,100337.19
2023-02-03T09:05:27.253Z,100332.84
2023-02-03T09:06:30.792Z,100329.16
2023-02-03T09:07:33.064Z,100328.16
2023-02-03T09:08:35.231Z,100331.38
2023-02-03T09:09:38.199Z,100325.44
2023-02-03T09:10:40.473Z,100328.69
2023-02-03T09:11:43.636Z,100329.53
2023-02-03T09:12:46.053Z,100320.75
2023-02-03T09:13:48.794Z,100317.44
2023-02-03T09:14:54.051Z,100315.53
2023-02-03T09:16:00.922Z,100309.31
2023-02-03T09:17:04.773Z,100312.22
2023-02-03T09:18:07.206Z,100308.81
2023-02-03T09:19:09.527Z,100315.84
2023-02-03T09:20:15.253Z,100306.88
2023-02-03T09:21:31.937Z,100308.81
2023-02-03T09:22:40.436Z,100300.69
2023-02-03T09:23:43.651Z,100297.13
2023-02-03T09:24:46.110Z,100299.16
2023-02-03T09:25:49.550Z,100303.78
2023-02-03T09:27:25.904Z,100293.72
2023-02-03T09:28:28.135Z,100297.06
2023-02-03T09:29:30.508Z,100294.13
2023-02-03T09:30:33.009Z,100285.28
2023-02-03T09:31:35.332Z,100300.44
2023-02-03T09:32:37.589Z,100296.72
2023-02-03T09:33:40.725Z,100297.56
2023-02-03T09:34:43.200Z,100292.28
2023-02-03T09:35:53.319Z,100271.75
2023-02-03T09:36:55.588Z,100283.03
2023-02-03T09:38:00.760Z,100280.34
2023-02-03T09:39:03.515Z,100272.53
2023-02-03T09:40:06.684Z,100268.81
2023-02-03T09:41:14.524Z,100248.44
2023-02-03T09:42:44.615Z,100254.63
2023-02-03T09:43:52.986Z,100252.81
2023-02-03T09:45:10.417Z,100248.38
2023-02-03T09:46:28.112Z,100241.97
2023-02-03T09:47:36.957Z,100242.88
2023-02-03T09:48:47.268Z,100243.63
2023-02-03T09:49:58.520Z,100233.09
2023-02-03T09:51:01.584Z,100234.31
2023-02-03T09:52:17.722Z,100242.91
2023-02-03T09:53:48.630Z,100233.09
2023-02-03T09:55:04.429Z,100232.09
2023-02-03T09:56:07.467Z,100223.19
2023-02-03T09:57:18.062Z,100225.69
2023-02-03T09:58:23.083Z,100219.91
2023-02-03T09:59:26.157Z,100207.69
2023-02-03T10:00:35.222Z,100204.75
2023-02-03T10:02:09.688Z,100211.81
2023-02-03T10:03:36.318Z,100208.91
2023-02-03T10:04:44.633Z,100200.09
2023-02-03T10:06:21.117Z,100205.38
2023-02-03T10:08:02.191Z,100200.94
2023-02-03T10:09:29.598Z,100196.50
2023-02-03T10:11:09.822Z,100188.97
2023-02-03T10:12:51.231Z,100184.75
2023-02-03T10:14:08.870Z,100184.91
2023-02-03T10:15:13.917Z,100192.69
2023-02-03T10:16:33.897Z,100190.94
2023-02-03T10:17:47.328Z,100182.81
2023-02-03T10:18:54.088Z,100178.97
2023-02-03T10:20:12.070Z,100175.66
2023-02-03T10:21:31.476Z,100173.25
2023-02-03T10:22:41.774Z,100175.91
2023-02-03T10:23:46.799Z,100166.19
2023-02-03T10:25:12.337Z,100174.84
2023-02-03T10:26:20.571Z,100159.41
2023-02-03T10:27:25.098Z,100171.03
2023-02-03T10:28:31.952Z,100154.72
2023-02-03T10:29:42.623Z,100166.31
2023-02-03T10:30:50.314Z,100162.63
2023-02-03T10:31:57.409Z,100159.97
2023-02-03T10:33:16.445Z,100155.88
2023-02-03T10:34:19.855Z,100143.22
2023-02-03T10:35:28.451Z,100145.56
2023-02-03T10:36:42.731Z,100137.56
2023-02-03T10:37:50.755Z,100142.19
2023-02-03T10:39:16.621Z,100126.09
2023-02-03T10:40:20.757Z,100135.16
2023-02-03T10:41:24.507Z,100113.50
2023-02-03T10:42:49.067Z,100122.97
2023-02-03T10:43:53.232Z,100128.94
2023-02-03T10:44:57.802Z,100117.97
2023-02-03T10:46:00.297Z,100120.69
2023-02-03T10:47:02.639Z,100115.31
2023-02-03T10:48:11.356Z,100113.53
2023-02-03T10:49:16.441Z,100097.91
2023-02-03T10:50:22.145Z,100099.59
2023-02-03T10:51:31.883Z,100096.72
2023-02-03T10:52:35.845Z,100098.38
2023-02-03T10:53:38.187Z,100092.19
2023-02-03T10:54:40.406Z,100086.75
2023-02-03T10:55:42.711Z,100098.78
2023-02-03T10:56:44.992Z,100094.19
2023-02-03T10:57:47.458Z,100088.13
2023-02-03T10:58:58.661Z,100076.59
2023-02-03T11:00:28.919Z,100072.84
2023-02-03T11:01:42.479Z,100084.34
2023-02-03T11:02:45.408Z,100066.88
2023-02-03T11:04:07.070Z,100073.59
2023-02-03T11:05:20.137Z,100068.84
2023-02-03T11:06:22.384Z,100056.44
2023-02-03T11:07:27.014Z,100057.84
2023-02-03T11:08:31.338Z,100053.16
2023-02-03T11:09:39.597Z,100046.03
2023-02-03T11:10:43.263Z,100033.50
2023-02-03T11:11:45.478Z,100028.88
2023-02-03T11:12:50.146Z,100031.53
2023-02-03T11:13:55.330Z,100030.59
2023-02-03T11:15:05.573Z,100031.50
2023-02-03T11:16:20.920Z,100024.47
2023-02-03T11:17:29.970Z,100026.66
2023-02-03T11:18:42.215Z,100014.25
2023-02-03T11:19:47.330Z,100022.59
2023-02-03T11:20:49.634Z,100023.75
2023-02-03T11:21:56.531Z,100013.28
2023-02-03T11:22:59.660Z,100021.16
2023-02-03T11:24:06.032Z,100017.19
2023-02-03T11:25:32.464Z,100010.94
2023-02-03T11:26:43.653Z,100015.09
2023-02-03T11:27:46.996Z,100002.78
2023-02-03T11:28:53.151Z,100020.63
2023-02-03T11:30:19.703Z,100018.59
2023-02-03T11:31:28.490Z,100026.25
2023-02-03T11:32:36.909Z,100018.22
2023-02-03T11:33:39.204Z,100018.59
2023-02-03T11:34:57.985Z,100016.69
2023-02-03T11:36:02.689Z,100024.72
2023-02-03T11:37:35.984Z,100020.75
2023-02-03T11:38:40.295Z,100019.13
2023-02-03T11:39:42.551Z,100034.31
2023-02-03T11:40:44.817Z,100024.72
2023-02-03T11:41:48.244Z,100024.72
2023-02-03T11:42:50.537Z,100030.06
2023-02-03T11:43:55.974Z,100021.22
2023-02-03T11:45:41.379Z,100012.88
2023-02-03T11:46:45.843Z,100011.41
2023-02-03T11:47:54.383Z,100014.25
2023-02-03T11:49:05.897Z,100020.28
2023-02-03T11:50:19.465Z,100018.59
2023-02-03T11:51:42.261Z,100007.88
2023-02-03T11:52:55.983Z,100006.09
2023-02-03T11:54:35.692Z,100001.56
2023-02-03T11:55:53.382Z,100009.50
2023-02-03T11:57:13.865Z,100008.97
2023-02-03T11:58:52.348Z,100012.63
2023-02-03T12:00:02.330Z,100032.25
2023-02-03T12:01:15.939Z,100044.72
2023-02-03T12:02:29.499Z,100098.72
2023-02-03T12:03:52.979Z,100141.78
2023-02-03T12:05:24.587Z,100149.47
2023-02-03T12:06:57.840Z,100160.38
2023-02-03T12:10:47.468Z,100117.31
2023-02-03T12:12:06.314Z,100128.66
2023-02-03T12:13:20.671Z,100110.78
2023-02-03T12:14:37.751Z,100122.81
2023-02-03T12:15:47.098Z,100119.19
2023-02-03T12:17:25.871Z,100111.88
2023-02-03T12:18:44.975Z,100104.69
2023-02-03T12:20:22.589Z,100107.88
2023-02-03T12:21:44.555Z,100121.56
2023-02-03T12:22:53.449Z,100095.91
2023-02-03T12:24:18.962Z,100090.50
2023-02-03T12:25:52.041Z,100105.53
2023-02-03T12:26:57.477Z,100088.25
2023-02-03T12:28:41.287Z,100098.72
2023-02-03T12:29:49.800Z,100091.94
2023-02-03T12:30:58.839Z,100104.13
2023-02-03T12:32:10.257Z,100109.09
2023-02-03T12:33:27.523Z,100095.69
2023-02-03T12:35:05.977Z,100099.75
2023-02-03T12:36:14.701Z,100088.75
2023-02-03T12:37:37.547Z,100093.00
2023-02-03T12:38:45.472Z,100090.47
2023-02-03T12:39:52.998Z,100094.53
2023-02-03T12:41:13.018Z,100088.38
2023-02-03T12:42:20.969Z,100104.97
2023-02-03T12:43:50.694Z,100114.09
2023-02-03T12:45:01.061Z,100102.66
2023-02-03T12:46:30.538Z,100090.88